sensor_id;sensor_type;location;lat;lon;timestamp;pressure;altitude;pressure_sealevel;temperature;humidity
69121;BME280;56228;43.550;5.030;2022-11-21T10:30:43;100966.50;;;36.76;16.60
69121;BME280;56228;43.550;5.030;2022-11-21T10:33:30;100984.56;;;36.98;16.54
69121;BME280;56228;43.550;5.030;2022-11-21T10:35:59;100985.56;;;36.91;16.45
69121;BME280;56228;43.550;5.030;2022-11-21T10:38:27;100966.88;;;36.58;17.07
69121;BME280;56228;43.550;5.030;2022-11-21T10:41:09;100979.00;;;36.90;16.29
69121;BME280;56228;43.550;5.030;2022-11-21T10:47:13;100956.53;;;37.16;16.18
69121;BME280;56228;43.550;5.030;2022-11-21T10:49:39;100945.75;;;37.19;16.28
69121;BME280;56228;43.550;5.030;2022-11-21T13:20:44;100521.31;;;36.52;16.92
69121;BME280;56228;43.550;5.030;2022-11-21T13:25:12;100470.81;;;36.87;17.03
69121;BME280;56228;43.550;5.030;2022-11-21T13:27:42;100463.88;;;36.94;17.02
69121;BME280;56228;43.550;5.030;2022-11-21T13:32:40;100425.50;;;36.98;17.02
69121;BME280;56228;43.550;5.030;2022-11-21T13:38:03;100448.84;;;37.27;17.17
69121;BME280;56228;43.550;5.030;2022-11-21T13:40:34;100441.72;;;35.92;17.84
69121;BME280;56228;43.550;5.030;2022-11-21T13:43:22;100437.00;;;35.99;18.23
69121;BME280;56228;43.550;5.030;2022-11-21T13:45:49;100437.16;;;36.56;17.46
69121;BME280;56228;43.550;5.030;2022-11-21T13:53:59;100399.81;;;37.08;17.19
69121;BME280;56228;43.550;5.030;2022-11-21T13:56:35;100378.88;;;36.68;17.68
69121;BME280;56228;43.550;5.030;2022-11-21T14:09:53;100358.38;;;35.83;18.90
69121;BME280;56228;43.550;5.030;2022-11-21T14:12:27;100369.47;;;36.00;18.61
69121;BME280;56228;43.550;5.030;2022-11-21T14:17:43;100360.16;;;36.16;18.05
69121;BME280;56228;43.550;5.030;2022-11-21T14:22:46;100348.06;;;36.08;18.67
69121;BME280;56228;43.550;5.030;2022-11-21T14:25:19;100347.84;;;36.03;18.37
69121;BME280;56228;43.550;5.030;2022-11-21T14:27:50;100353.25;;;36.37;18.33
69121;BME280;56228;43.550;5.030;2022-11-21T14:33:21;100324.81;;;36.35;18.22
69121;BME280;56228;43.550;5.030;2022-11-21T14:35:50;100324.03;;;36.07;18.17
69121;BME280;56228;43.550;5.030;2022-11-21T14:38:19;100310.59;;;35.86;18.90
69121;BME280;56228;43.550;5.030;2022-11-21T14:40:47;100310.78;;;35.76;18.93
69121;BME280;56228;43.550;5.030;2022-11-21T14:43:31;100304.56;;;36.37;18.12
69121;BME280;56228;43.550;5.030;2022-11-21T14:45:57;100283.56;;;36.82;17.87
69121;BME280;56228;43.550;5.030;2022-11-21T14:48:26;100289.72;;;36.03;18.38
69121;BME280;56228;43.550;5.030;2022-11-21T14:50:52;100310.88;;;35.64;18.80
69121;BME280;56228;43.550;5.030;2022-11-21T14:53:19;100305.09;;;35.78;18.81
69121;BME280;56228;43.550;5.030;2022-11-21T14:55:48;100315.66;;;36.13;18.75
69121;BME280;56228;43.550;5.030;2022-11-21T14:58:15;100260.63;;;36.03;18.55
69121;BME280;56228;43.550;5.030;2022-11-21T15:01:18;100284.00;;;35.92;18.64
69121;BME280;56228;43.550;5.030;2022-11-21T15:04:04;100278.38;;;35.96;18.54
69121;BME280;56228;43.550;5.030;2022-11-21T15:06:39;100256.19;;;34.82;19.76
69121;BME280;56228;43.550;5.030;2022-11-21T15:09:05;100242.94;;;35.04;19.71
69121;BME280;56228;43.550;5.030;2022-11-21T15:11:39;100237.75;;;35.03;19.95
69121;BME280;56228;43.550;5.030;2022-11-21T15:15:14;100249.44;;;35.17;19.57
69121;BME280;56228;43.550;5.030;2022-11-21T15:17:18;100247.66;;;35.37;19.66
69121;BME280;56228;43.550;5.030;2022-11-21T15:19:50;100226.47;;;35.49;19.28
69121;BME280;56228;43.550;5.030;2022-11-21T15:22:32;100248.09;;;35.59;19.52
69121;BME280;56228;43.550;5.030;2022-11-21T15:25:16;100252.19;;;35.40;19.60
69121;BME280;56228;43.550;5.030;2022-11-21T15:27:46;100243.50;;;35.96;19.05
69121;BME280;56228;43.550;5.030;2022-11-21T15:38:23;100222.53;;;35.83;18.95
69121;BME280;56228;43.550;5.030;2022-11-21T15:44:17;100215.66;;;35.77;19.05
69121;BME280;56228;43.550;5.030;2022-11-21T15:46:43;100219.63;;;35.83;18.89
69121;BME280;56228;43.550;5.030;2022-11-21T15:49:12;100203.56;;;35.82;19.36
69121;BME280;56228;43.550;5.030;2022-11-21T15:51:43;100201.53;;;35.99;18.85
69121;BME280;56228;43.550;5.030;2022-11-21T15:54:19;100188.50;;;35.44;19.33
69121;BME280;56228;43.550;5.030;2022-11-21T15:56:46;100192.25;;;36.02;19.35
69121;BME280;56228;43.550;5.030;2022-11-21T15:59:12;100201.63;;;36.01;19.03
69121;BME280;56228;43.550;5.030;2022-11-21T16:01:38;100198.59;;;35.16;20.14
69121;BME280;56228;43.550;5.030;2022-11-21T16:04:05;100193.66;;;35.60;19.56
69121;BME280;56228;43.550;5.030;2022-11-21T16:06:32;100193.31;;;36.09;18.87
69121;BME280;56228;43.550;5.030;2022-11-21T16:08:59;100210.59;;;35.77;19.40
69121;BME280;56228;43.550;5.030;2022-11-21T16:11:26;100200.38;;;35.76;18.97
69121;BME280;56228;43.550;5.030;2022-11-21T16:13:54;100188.72;;;35.49;19.29
69121;BME280;56228;43.550;5.030;2022-11-21T16:16:22;100186.03;;;35.53;19.71
69121;BME280;56228;43.550;5.030;2022-11-21T16:18:48;100196.69;;;35.62;19.33
69121;BME280;56228;43.550;5.030;2022-11-21T16:21:14;100199.59;;;35.62;19.24
69121;BME280;56228;43.550;5.030;2022-11-21T16:23:40;100210.56;;;35.50;19.64
69121;BME280;56228;43.550;5.030;2022-11-21T16:26:06;100205.59;;;35.94;19.15
69121;BME280;56228;43.550;5.030;2022-11-21T16:28:33;100203.69;;;35.03;20.23
69121;BME280;56228;43.550;5.030;2022-11-21T16:30:59;100194.94;;;35.29;20.06
69121;BME280;56228;43.550;5.030;2022-11-21T16:33:25;100209.91;;;35.37;20.06
69121;BME280;56228;43.550;5.030;2022-11-21T16:35:51;100196.31;;;34.37;20.37
69121;BME280;56228;43.550;5.030;2022-11-21T16:38:23;100194.72;;;34.22;21.24
69121;BME280;56228;43.550;5.030;2022-11-21T16:40:59;100196.06;;;33.96;20.61
69121;BME280;56228;43.550;5.030;2022-11-21T16:43:26;100195.50;;;34.49;20.57
69121;BME280;56228;43.550;5.030;2022-11-21T16:45:52;100201.09;;;35.49;19.93
69121;BME280;56228;43.550;5.030;2022-11-21T16:48:21;100184.63;;;35.40;19.89
69121;BME280;56228;43.550;5.030;2022-11-21T16:50:47;100199.53;;;35.74;19.28
69121;BME280;56228;43.550;5.030;2022-11-21T16:53:14;100188.38;;;36.12;19.37
69121;BME280;56228;43.550;5.030;2022-11-21T16:55:40;100192.75;;;36.26;18.61
69121;BME280;56228;43.550;5.030;2022-11-21T16:58:05;100184.19;;;36.15;18.68
69121;BME280;56228;43.550;5.030;2022-11-21T17:00:31;100184.94;;;36.15;18.82
69121;BME280;56228;43.550;5.030;2022-11-21T17:02:57;100149.47;;;35.75;19.12
69121;BME280;56228;43.550;5.030;2022-11-21T17:05:22;100173.34;;;35.88;19.24
69121;BME280;56228;43.550;5.030;2022-11-21T17:07:48;100173.75;;;35.96;19.54
69121;BME280;56228;43.550;5.030;2022-11-21T17:10:14;100177.41;;;35.55;19.33
69121;BME280;56228;43.550;5.030;2022-11-21T17:12:41;100175.41;;;35.85;19.11
69121;BME280;56228;43.550;5.030;2022-11-21T17:15:12;100173.91;;;35.70;19.60
69121;BME280;56228;43.550;5.030;2022-11-21T17:17:39;100174.13;;;35.74;19.01
69121;BME280;56228;43.550;5.030;2022-11-21T17:20:06;100170.78;;;35.66;19.29
69121;BME280;56228;43.550;5.030;2022-11-21T17:22:32;100180.78;;;35.49;19.25
69121;BME280;56228;43.550;5.030;2022-11-21T17:24:58;100170.88;;;35.68;19.60
69121;BME280;56228;43.550;5.030;2022-11-21T17:27:24;100165.59;;;35.92;19.22
69121;BME280;56228;43.550;5.030;2022-11-21T17:29:49;100159.31;;;35.98;18.83
69121;BME280;56228;43.550;5.030;2022-11-21T17:32:15;100154.59;;;35.91;18.84
69121;BME280;56228;43.550;5.030;2022-11-21T17:34:41;100148.50;;;35.71;19.31
69121;BME280;56228;43.550;5.030;2022-11-21T17:37:06;100146.22;;;35.55;19.32
69121;BME280;56228;43.550;5.030;2022-11-21T17:39:32;100144.94;;;35.72;19.22
69121;BME280;56228;43.550;5.030;2022-11-21T17:41:57;100145.97;;;35.93;19.28
69121;BME280;56228;43.550;5.030;2022-11-21T17:44:27;100143.44;;;36.74;18.36
69121;BME280;56228;43.550;5.030;2022-11-21T17:46:53;100148.03;;;37.09;18.00
69121;BME280;56228;43.550;5.030;2022-11-21T17:49:19;100138.25;;;37.18;17.75
69121;BME280;56228;43.550;5.030;2022-11-21T17:51:44;100147.91;;;37.07;18.02
69121;BME280;56228;43.550;5.030;2022-11-21T17:54:10;100150.31;;;37.44;17.46
69121;BME280;56228;43.550;5.030;2022-11-21T17:56:37;100155.66;;;37.66;17.25
69121;BME280;56228;43.550;5.030;2022-11-21T17:59:04;100153.84;;;37.75;17.49
69121;BME280;56228;43.550;5.030;2022-11-21T18:01:30;100166.94;;;37.58;17.51
69121;BME280;56228;43.550;5.030;2022-11-21T18:04:01;100177.84;;;37.41;17.65
69121;BME280;56228;43.550;5.030;2022-11-21T18:06:31;100179.06;;;36.29;18.40
69121;BME280;56228;43.550;5.030;2022-11-21T18:08:57;100180.31;;;35.82;19.44
69121;BME280;56228;43.550;5.030;2022-11-21T18:11:30;100198.75;;;35.73;19.08
69121;BME280;56228;43.550;5.030;2022-11-21T18:13:59;100193.78;;;35.62;19.50
69121;BME280;56228;43.550;5.030;2022-11-21T18:16:27;100188.63;;;35.74;19.57
69121;BME280;56228;43.550;5.030;2022-11-21T18:18:53;100187.47;;;36.37;19.00
69121;BME280;56228;43.550;5.030;2022-11-21T18:21:26;100176.56;;;36.37;18.88
69121;BME280;56228;43.550;5.030;2022-11-21T18:23:52;100179.94;;;35.74;19.33
69121;BME280;56228;43.550;5.030;2022-11-21T18:26:21;100181.75;;;35.81;19.25
69121;BME280;56228;43.550;5.030;2022-11-21T18:28:48;100180.78;;;35.63;19.62
69121;BME280;56228;43.550;5.030;2022-11-21T18:31:19;100177.88;;;35.77;19.43
69121;BME280;56228;43.550;5.030;2022-11-21T18:34:04;100170.72;;;35.94;19.06
69121;BME280;56228;43.550;5.030;2022-11-21T18:36:31;100140.22;;;36.22;18.57
